»·PEaware :: N5205X KSBP-KBUR

N5205X :: KSBP-KBUR

FLIGHT INFORMATION

Flight Status: Arrived
Operator: Privately registered:
United States
More flights under this callsign
Pilot: Martin B. (29991)
Aircraft: CIRRUS SR-22 TURBO
(S22T)
More flights by this aircraft type
Origin: KSBP San Luis Co Regl
United States
Destination: KBUR Bob Hope-Burbank
United States
More flights between these airports :: More routes between these airports
Route: FIM
File this flight plan on PilotEdge
Remarks:
Altitude:
(Current/Filed)
7,500ft
Speed:
(Current/Filed)
170kts
Departed: 09-Jan-21 11:38 AM
Arrived: 09-Jan-21 12:15 PM
Distance/Time
Traveled:
129nm/0:37
Distance/Time
To Go:
Arrived

Flight Plot

Page will automatically refresh every two minutes.

Flight plan parsing failed; only flown route is shown


Map Options




Map Legend


Flown Route
Filed Route
Departure Airport
Arrival Airport
Navaid (VOR, NDB)
Fix

Horizontal Profiles

Position Reports

Time Latitude Longitude Heading Altitude Ground
Speed
09-Jan-21 11:13 34.422660 -119.835592 340 13ft 0kts
09-Jan-21 11:14 34.422660 -119.835592 340 13ft 0kts
09-Jan-21 11:15 34.422660 -119.835592 340 13ft 0kts
09-Jan-21 11:16 34.422660 -119.835592 340 13ft 0kts
09-Jan-21 11:17 34.422660 -119.835592 340 13ft 0kts
09-Jan-21 11:18 34.422660 -119.835592 340 13ft 0kts
09-Jan-21 11:19 34.422660 -119.835592 340 13ft 0kts
09-Jan-21 11:20 34.422660 -119.835592 340 13ft 0kts
09-Jan-21 11:21 34.422660 -119.835592 340 13ft 0kts
09-Jan-21 11:22 34.422707 -119.835723 275 13ft 0kts
09-Jan-21 11:23 34.422707 -119.835723 275 13ft 0kts
09-Jan-21 11:24 34.422707 -119.835723 275 13ft 0kts
09-Jan-21 11:25 34.422707 -119.835723 275 13ft 0kts
09-Jan-21 11:26 34.422707 -119.835723 275 13ft 0kts
09-Jan-21 11:27 34.422707 -119.835724 275 13ft 0kts
09-Jan-21 11:28 34.422707 -119.835724 275 13ft 0kts
09-Jan-21 11:29 34.422707 -119.835724 275 13ft 0kts
09-Jan-21 11:30 34.422656 -119.836195 267 13ft 16kts
09-Jan-21 11:31 34.426659 -119.838049 61 12ft 9kts
09-Jan-21 11:32 34.427066 -119.835015 357 11ft 0kts
09-Jan-21 11:33 34.427066 -119.835015 357 11ft 0kts
09-Jan-21 11:34 34.427066 -119.835015 357 11ft 0kts
09-Jan-21 11:35 34.427066 -119.835015 357 11ft 0kts
09-Jan-21 11:36 34.427271 -119.835098 332 12ft 11kts
09-Jan-21 11:37 34.427491 -119.853465 268 317ft 121kts
09-Jan-21 11:38 34.425514 -119.895732 269 1526ft 156kts
09-Jan-21 11:39 34.423061 -119.954376 268 1520ft 176kts
09-Jan-21 11:40 34.420415 -120.007655 268 2710ft 146kts
09-Jan-21 11:41 34.440064 -120.022517 70 4042ft 133kts
09-Jan-21 11:42 34.433967 -119.978296 95 5344ft 131kts
09-Jan-21 11:43 34.429077 -119.933670 91 6646ft 135kts
09-Jan-21 11:44 34.425241 -119.885894 90 7517ft 164kts
09-Jan-21 11:45 34.420770 -119.823541 91 7494ft 196kts
09-Jan-21 11:46 34.416273 -119.756778 91 7488ft 198kts
09-Jan-21 11:47 34.412096 -119.692582 90 7484ft 181kts
09-Jan-21 11:48 34.408158 -119.631422 90 7488ft 178kts
09-Jan-21 11:49 34.404232 -119.571048 89 7489ft 178kts
09-Jan-21 11:50 34.400542 -119.510653 88 7491ft 178kts
09-Jan-21 11:51 34.396484 -119.450052 88 7494ft 176kts
09-Jan-21 11:52 34.392419 -119.389957 88 7496ft 173kts
09-Jan-21 11:53 34.388346 -119.331732 89 7498ft 170kts
09-Jan-21 11:54 34.384210 -119.274649 89 7499ft 167kts
09-Jan-21 11:55 34.380108 -119.218468 89 7497ft 166kts
09-Jan-21 11:56 34.375966 -119.162485 89 7496ft 166kts
09-Jan-21 11:57 34.371896 -119.106547 88 7496ft 166kts
09-Jan-21 11:58 34.367904 -119.050411 88 7495ft 167kts
09-Jan-21 11:59 34.363927 -118.994231 88 7496ft 167kts
09-Jan-21 12:00 34.359930 -118.937641 87 7500ft 167kts
09-Jan-21 12:01 34.356687 -118.881399 75 7500ft 163kts
09-Jan-21 12:02 34.340475 -118.827098 103 7513ft 174kts
09-Jan-21 12:03 34.323925 -118.771727 103 7513ft 174kts
09-Jan-21 12:04 34.308220 -118.718776 102 7514ft 154kts
09-Jan-21 12:05 34.294388 -118.672189 101 7275ft 142kts
09-Jan-21 12:06 34.280988 -118.627421 101 6553ft 139kts
09-Jan-21 12:07 34.259789 -118.586597 118 5847ft 144kts
09-Jan-21 12:08 34.237348 -118.546250 105 5142ft 139kts
09-Jan-21 12:09 34.231847 -118.502608 86 4426ft 126kts
09-Jan-21 12:10 34.221153 -118.464801 115 3694ft 119kts
09-Jan-21 12:12 34.204117 -118.434711 116 2984ft 81kts
09-Jan-21 12:13 34.198929 -118.408807 106 2137ft 78kts
09-Jan-21 12:14 34.197955 -118.376585 96 1143ft 98kts
09-Jan-21 12:15 34.197322 -118.358030 165 714ft 11kts
09-Jan-21 12:16 34.197009 -118.358023 164 712ft 0kts
09-Jan-21 12:17 34.195865 -118.357573 11 708ft 0kts
09-Jan-21 12:18 34.195865 -118.357573 11 708ft 0kts
09-Jan-21 12:19 34.195865 -118.357573 11 708ft 0kts
09-Jan-21 12:20 34.195865 -118.357573 11 708ft 0kts

Navigation Log

Ident Type
Flight plan parsing failed, navigation log unavailable